createdAt,value
2023-05-02T00:02:18.650Z,100833.29
2023-05-02T00:05:33.663Z,100836.77
2023-05-02T00:09:03.087Z,100843.20
2023-05-02T00:12:32.617Z,100839.91
2023-05-02T00:15:51.478Z,100840.44
2023-05-02T00:19:20.840Z,100829.28
2023-05-02T00:22:50.629Z,100808.73
2023-05-02T00:26:19.385Z,100810.83
2023-05-02T00:29:48.735Z,100816.91
2023-05-02T00:33:11.060Z,100814.99
2023-05-02T00:36:40.100Z,100817.96
2023-05-02T00:40:09.131Z,100818.13
2023-05-02T00:43:31.520Z,100813.77
2023-05-02T00:47:00.674Z,100809.24
2023-05-02T00:50:29.659Z,100797.55
2023-05-02T00:53:42.901Z,100797.91
2023-05-02T00:57:12.212Z,100801.38
2023-05-02T01:00:34.015Z,100804.35
2023-05-02T01:04:03.070Z,100800.52
2023-05-02T01:07:44.807Z,100802.97
2023-05-02T01:11:19.605Z,100808.54
2023-05-02T01:14:48.855Z,100805.92
2023-05-02T01:18:17.784Z,100809.59
2023-05-02T01:21:08.873Z,100805.77
2023-05-02T01:25:00.514Z,100800.20
2023-05-02T01:28:32.951Z,100796.38
2023-05-02T01:31:43.264Z,100790.45
2023-05-02T01:38:18.476Z,100783.85
2023-05-02T01:41:47.414Z,100789.77
2023-05-02T01:45:16.817Z,100803.69
2023-05-02T01:48:27.298Z,100803.51
2023-05-02T01:51:56.539Z,100789.91
2023-05-02T01:55:24.926Z,100793.34
2023-05-02T01:58:54.536Z,100788.97
2023-05-02T02:02:23.812Z,100776.95
2023-05-02T02:05:36.857Z,100771.17
2023-05-02T02:08:46.010Z,100776.37
2023-05-02T02:12:15.314Z,100788.52
2023-05-02T02:15:46.102Z,100789.54
2023-05-02T02:19:15.533Z,100784.66
2023-05-02T02:22:44.397Z,100780.98
2023-05-02T02:26:13.792Z,100789.13
2023-05-02T02:29:43.115Z,100790.15
2023-05-02T02:33:12.560Z,100791.71
2023-05-02T02:36:25.131Z,100787.88
2023-05-02T02:40:00.258Z,100790.63
2023-05-02T02:43:34.241Z,100791.50
2023-05-02T02:47:09.710Z,100793.23
2023-05-02T02:50:57.356Z,100801.38
2023-05-02T02:54:42.597Z,100806.04
2023-05-02T02:58:38.732Z,100807.79
2023-05-02T03:02:07.971Z,100811.77
2023-05-02T03:05:37.458Z,100812.45
2023-05-02T03:08:32.897Z,100817.30
2023-05-02T03:12:03.044Z,100819.75
2023-05-02T03:15:32.465Z,100819.05
2023-05-02T03:19:01.177Z,100822.39
2023-05-02T03:22:31.206Z,100818.42
2023-05-02T03:25:40.946Z,100807.00
2023-05-02T03:29:01.442Z,100790.34
2023-05-02T03:32:30.225Z,100787.41
2023-05-02T03:35:59.071Z,100788.99
2023-05-02T03:39:28.810Z,100780.85
2023-05-02T03:42:30.972Z,100785.55
2023-05-02T03:46:00.705Z,100790.44
2023-05-02T03:49:21.784Z,100789.73
2023-05-02T03:52:52.757Z,100785.58
2023-05-02T03:56:23.416Z,100787.31
2023-05-02T03:59:36.736Z,100809.04
2023-05-02T04:02:58.493Z,100812.52
2023-05-02T04:06:11.202Z,100809.21
2023-05-02T04:09:30.436Z,100810.61
2023-05-02T04:13:00.797Z,100815.83
2023-05-02T04:16:14.246Z,100827.31
2023-05-02T04:19:43.707Z,100822.13
2023-05-02T04:22:48.585Z,100815.01
2023-05-02T04:26:17.628Z,100808.76
2023-05-02T04:29:22.034Z,100800.05
2023-05-02T04:32:11.517Z,100796.07
2023-05-02T04:35:33.748Z,100792.25
2023-05-02T04:38:45.886Z,100791.38
2023-05-02T04:41:24.220Z,100791.20
2023-05-02T04:44:44.177Z,100790.33
2023-05-02T04:47:57.200Z,100785.26
2023-05-02T04:50:27.216Z,100792.71
2023-05-02T04:53:56.852Z,100789.91
2023-05-02T04:57:16.789Z,100776.52
2023-05-02T05:00:29.361Z,100767.61
2023-05-02T05:03:58.583Z,100764.30
2023-05-02T05:07:27.585Z,100757.13
2023-05-02T05:10:40.162Z,100756.23
2023-05-02T05:13:28.531Z,100761.08
2023-05-02T05:16:48.741Z,100756.20
2023-05-02T05:20:16.774Z,100750.45
2023-05-02T05:23:46.261Z,100750.27
2023-05-02T05:27:15.576Z,100739.84
2023-05-02T05:30:18.288Z,100740.17
2023-05-02T05:33:32.560Z,100744.49
2023-05-02T05:36:41.374Z,100745.02
2023-05-02T05:40:00.759Z,100736.14
2023-05-02T05:43:22.231Z,100731.80
2023-05-02T05:46:41.530Z,100737.69
2023-05-02T05:49:41.650Z,100740.63
2023-05-02T05:52:51.745Z,100749.15
2023-05-02T05:56:04.219Z,100752.09
2023-05-02T05:59:12.907Z,100766.14
2023-05-02T06:02:14.547Z,100778.65
2023-05-02T06:05:03.720Z,100786.80
2023-05-02T06:08:33.185Z,100795.14
2023-05-02T06:11:22.194Z,100820.14
2023-05-02T06:14:51.286Z,100826.37
2023-05-02T06:17:40.647Z,100827.23
2023-05-02T06:20:35.561Z,100830.69
2023-05-02T06:23:50.999Z,100847.02
2023-05-02T06:26:29.027Z,100849.79
2023-05-02T06:29:04.711Z,100850.84
2023-05-02T06:32:11.435Z,100859.88
2023-05-02T06:35:22.957Z,100863.02
2023-05-02T06:37:54.979Z,100870.18
2023-05-02T06:41:24.390Z,100873.50
2023-05-02T06:43:53.823Z,100877.91
2023-05-02T06:47:13.485Z,100877.42
2023-05-02T06:50:25.975Z,100883.37
2023-05-02T06:53:14.684Z,100872.64
2023-05-02T06:56:44.132Z,100859.14
2023-05-02T06:59:46.614Z,100848.73
2023-05-02T07:03:16.036Z,100827.19
2023-05-02T07:06:45.414Z,100792.64
2023-05-02T07:10:00.716Z,100769.89
2023-05-02T07:13:30.450Z,100733.58
2023-05-02T07:16:59.749Z,100710.12
2023-05-02T07:20:22.253Z,100696.74
2023-05-02T07:23:52.610Z,100667.91
2023-05-02T07:27:02.255Z,100685.98
2023-05-02T07:30:31.876Z,100772.20
2023-05-02T07:34:01.181Z,100831.16
2023-05-02T07:37:14.116Z,100820.20
2023-05-02T07:40:23.436Z,100782.48
2023-05-02T07:43:35.579Z,100796.05
2023-05-02T07:46:30.556Z,100823.18
2023-05-02T07:49:40.127Z,100800.94
2023-05-02T07:52:33.221Z,100783.92
2023-05-02T07:56:02.686Z,100781.65
2023-05-02T07:59:14.946Z,100793.83
2023-05-02T08:02:00.434Z,100792.10
2023-05-02T08:04:29.736Z,100792.42
2023-05-02T08:07:23.302Z,100794.86
2023-05-02T08:10:32.436Z,100786.67
2023-05-02T08:14:01.975Z,100773.80
2023-05-02T08:17:31.425Z,100787.86
2023-05-02T08:20:50.996Z,100796.36
2023-05-02T08:24:21.156Z,100781.55
2023-05-02T08:27:40.799Z,100769.89
2023-05-02T08:31:10.386Z,100774.56
2023-05-02T08:34:04.524Z,100767.07
2023-05-02T08:37:34.068Z,100772.26
2023-05-02T08:41:03.375Z,100809.41
2023-05-02T08:44:33.704Z,100846.39
2023-05-02T08:48:02.989Z,100838.36
2023-05-02T08:51:32.776Z,100851.20
2023-05-02T08:54:41.864Z,100861.60
2023-05-02T08:58:00.535Z,100888.14
2023-05-02T09:01:30.151Z,100922.86
2023-05-02T09:05:00.273Z,100929.29
2023-05-02T09:08:21.825Z,100923.73
2023-05-02T09:11:52.661Z,100926.16
2023-05-02T09:15:12.379Z,100944.39
2023-05-02T09:18:44.408Z,100958.08
2023-05-02T09:22:20.060Z,100974.36
2023-05-02T09:25:49.380Z,100965.34
2023-05-02T09:29:24.693Z,100976.45
2023-05-02T09:32:53.916Z,100976.09
2023-05-02T09:36:24.909Z,100964.96
2023-05-02T09:39:44.535Z,100950.89
2023-05-02T09:43:04.371Z,100949.50
2023-05-02T09:46:40.228Z,100921.86
2023-05-02T09:50:21.687Z,100888.86
2023-05-02T09:53:41.655Z,100882.11
2023-05-02T09:56:54.200Z,100863.55
2023-05-02T10:00:23.411Z,100831.60
2023-05-02T10:03:44.108Z,100801.24
2023-05-02T10:07:13.432Z,100774.86
2023-05-02T10:10:42.713Z,100759.59
2023-05-02T10:14:12.179Z,100738.08
2023-05-02T10:17:35.646Z,100714.79
2023-05-02T10:21:04.850Z,100692.92
2023-05-02T10:24:37.040Z,100674.35
2023-05-02T10:28:06.403Z,100648.98
2023-05-02T10:31:26.098Z,100622.42
2023-05-02T10:34:55.916Z,100603.50
2023-05-02T10:38:15.108Z,100618.27
2023-05-02T10:41:34.788Z,100622.96
2023-05-02T10:45:16.243Z,100608.88
2023-05-02T10:48:56.865Z,100586.49
2023-05-02T10:52:31.804Z,100610.11
2023-05-02T10:56:07.635Z,100634.59
2023-05-02T10:59:36.874Z,100668.48
2023-05-02T11:02:47.288Z,100714.52
2023-05-02T11:06:11.866Z,100724.27
2023-05-02T11:09:56.544Z,100723.43
2023-05-02T11:13:27.612Z,100726.75
2023-05-02T11:16:45.686Z,100716.33
2023-05-02T11:20:12.249Z,100707.84
2023-05-02T11:23:44.107Z,100714.61
2023-05-02T11:26:56.145Z,100729.20
2023-05-02T11:30:19.190Z,100732.52
2023-05-02T11:33:12.046Z,100728.34
2023-05-02T11:35:44.000Z,100724.34
2023-05-02T11:38:18.534Z,100722.77
2023-05-02T11:41:25.417Z,100722.59
2023-05-02T11:44:54.814Z,100717.70
2023-05-02T11:47:48.734Z,100712.47
2023-05-02T11:51:24.539Z,100720.62
2023-05-02T11:54:15.037Z,100722.15
2023-05-02T11:57:44.300Z,100718.15
2023-05-02T12:01:13.647Z,100727.33
2023-05-02T12:04:43.353Z,100725.05
2023-05-02T12:08:27.754Z,100730.08
2023-05-02T12:11:57.224Z,100733.88
2023-05-02T12:15:27.582Z,100718.41
2023-05-02T12:18:56.825Z,100705.38
2023-05-02T12:22:00.547Z,100708.65
2023-05-02T12:25:29.534Z,100704.13
2023-05-02T12:29:05.189Z,100683.98
2023-05-02T12:32:32.540Z,100676.14
2023-05-02T12:35:53.846Z,100665.02
2023-05-02T12:38:26.831Z,100654.77
2023-05-02T12:41:00.020Z,100647.99
2023-05-02T12:43:44.357Z,100649.02
2023-05-02T12:46:30.267Z,100641.20
2023-05-02T12:49:21.972Z,100645.19
2023-05-02T12:52:51.444Z,100650.03
2023-05-02T12:55:59.856Z,100662.66
2023-05-02T12:58:31.874Z,100660.04
2023-05-02T13:01:34.383Z,100655.52
2023-05-02T13:05:04.817Z,100650.98
2023-05-02T13:07:54.587Z,100643.17
2023-05-02T13:11:23.829Z,100642.13
2023-05-02T13:14:52.929Z,100656.52
2023-05-02T13:18:22.505Z,100663.82
2023-05-02T13:21:51.898Z,100664.73
2023-05-02T13:25:14.677Z,100663.94
2023-05-02T13:28:38.880Z,100663.10
2023-05-02T13:32:07.892Z,100655.84
2023-05-02T13:35:37.538Z,100650.48
2023-05-02T13:39:06.762Z,100652.23
2023-05-02T13:42:36.186Z,100647.94
2023-05-02T13:45:07.608Z,100648.47
2023-05-02T13:47:36.394Z,100648.49
2023-05-02T13:50:06.324Z,100639.64
2023-05-02T13:52:35.081Z,100642.62
2023-05-02T13:55:04.228Z,100648.20
2023-05-02T13:57:33.456Z,100648.55
2023-05-02T14:00:15.429Z,100643.70
2023-05-02T14:02:47.860Z,100634.86
2023-05-02T14:05:19.727Z,100629.99
2023-05-02T14:07:51.967Z,100629.30
2023-05-02T14:10:21.279Z,100626.19
2023-05-02T14:12:51.144Z,100624.27
2023-05-02T14:15:22.022Z,100623.75
2023-05-02T14:18:51.190Z,100621.14
2023-05-02T14:22:20.091Z,100616.46
2023-05-02T14:25:32.747Z,100604.98
2023-05-02T14:29:02.349Z,100603.77
2023-05-02T14:32:31.842Z,100615.77
2023-05-02T14:35:05.400Z,100617.15
2023-05-02T14:38:34.559Z,100611.77
2023-05-02T14:42:04.170Z,100617.17
2023-05-02T14:45:33.583Z,100618.02
2023-05-02T14:49:02.344Z,100606.89
2023-05-02T14:52:10.789Z,100604.63
2023-05-02T14:55:16.733Z,100608.98
2023-05-02T14:58:24.589Z,100608.10
2023-05-02T15:01:42.637Z,100599.94
2023-05-02T15:04:33.535Z,100592.48
2023-05-02T15:08:01.820Z,100595.41
2023-05-02T15:11:31.064Z,100596.81
2023-05-02T15:15:00.421Z,100592.12
2023-05-02T15:18:29.587Z,100590.72
2023-05-02T15:21:53.172Z,100588.80
2023-05-02T15:25:21.828Z,100591.06
2023-05-02T15:28:51.149Z,100590.20
2023-05-02T15:31:40.804Z,100595.77
2023-05-02T15:35:11.235Z,100592.98
2023-05-02T15:38:40.729Z,100593.49
2023-05-02T15:41:53.076Z,100592.45
2023-05-02T15:45:21.073Z,100593.16
2023-05-02T15:48:18.993Z,100591.25
2023-05-02T15:51:41.565Z,100589.33
2023-05-02T15:54:38.227Z,100588.63
2023-05-02T15:58:07.746Z,100592.28
2023-05-02T16:01:15.960Z,100600.46
2023-05-02T16:04:27.011Z,100601.31
2023-05-02T16:07:36.391Z,100605.49
2023-05-02T16:11:05.614Z,100598.20
2023-05-02T16:13:55.363Z,100588.81
2023-05-02T16:17:15.730Z,100587.05
2023-05-02T16:20:45.016Z,100583.23
2023-05-02T16:24:08.454Z,100579.59
2023-05-02T16:27:38.407Z,100576.96
2023-05-02T16:31:07.725Z,100574.55
2023-05-02T16:34:11.939Z,100568.64
2023-05-02T16:37:22.667Z,100564.64
2023-05-02T16:40:51.836Z,100559.78
2023-05-02T16:44:21.509Z,100559.78
2023-05-02T16:47:51.263Z,100554.39
2023-05-02T16:51:20.121Z,100556.83
2023-05-02T16:54:48.953Z,100562.38
2023-05-02T16:57:23.269Z,100563.59
2023-05-02T16:59:56.171Z,100564.45
2023-05-02T17:03:27.303Z,100574.18
2023-05-02T17:06:35.566Z,100574.38
2023-05-02T17:10:04.827Z,100563.06
2023-05-02T17:12:59.617Z,100557.30
2023-05-02T17:16:02.755Z,100561.63
2023-05-02T17:18:38.218Z,100556.75
2023-05-02T17:21:29.039Z,100554.64
2023-05-02T17:24:27.493Z,100551.33
2023-05-02T17:26:59.859Z,100548.17
2023-05-02T17:29:49.205Z,100543.63
2023-05-02T17:33:19.329Z,100542.57
2023-05-02T17:36:31.752Z,100540.80
2023-05-02T17:40:02.268Z,100541.66
2023-05-02T17:43:31.740Z,100545.83
2023-05-02T17:46:38.582Z,100543.70
2023-05-02T17:50:08.527Z,100532.20
2023-05-02T17:53:37.895Z,100519.81
2023-05-02T17:57:07.373Z,100511.94
2023-05-02T18:00:37.132Z,100514.86
2023-05-02T18:04:06.758Z,100518.86
2023-05-02T18:07:26.085Z,100523.20
2023-05-02T18:10:55.032Z,100519.87
2023-05-02T18:14:24.566Z,100510.44
2023-05-02T18:17:54.027Z,100504.83
2023-05-02T18:21:05.502Z,100501.84
2023-05-02T18:24:34.894Z,100494.17
2023-05-02T18:28:04.774Z,100488.77
2023-05-02T18:31:34.544Z,100484.94
2023-05-02T18:35:04.711Z,100489.98
2023-05-02T18:37:36.607Z,100497.29
2023-05-02T18:41:05.937Z,100492.36
2023-05-02T18:44:35.434Z,100482.92
2023-05-02T18:47:44.490Z,100478.87
2023-05-02T18:51:14.046Z,100472.22
2023-05-02T18:54:42.278Z,100465.02
2023-05-02T18:58:11.643Z,100467.41
2023-05-02T19:01:23.154Z,100472.21
2023-05-02T19:04:53.479Z,100475.48
2023-05-02T19:08:13.543Z,100471.77
2023-05-02T19:11:43.050Z,100472.60
2023-05-02T19:14:52.722Z,100471.20
2023-05-02T19:18:21.954Z,100470.31
2023-05-02T19:21:51.312Z,100467.15
2023-05-02T19:25:04.603Z,100464.00
2023-05-02T19:28:34.277Z,100466.05
2023-05-02T19:32:04.487Z,100468.45
2023-05-02T19:35:34.421Z,100474.30
2023-05-02T19:38:48.462Z,100470.77
2023-05-02T19:42:18.834Z,100465.28
2023-05-02T19:45:47.736Z,100460.83
2023-05-02T19:49:16.533Z,100460.55
2023-05-02T19:52:18.555Z,100460.25
2023-05-02T19:55:47.909Z,100449.87
2023-05-02T19:58:42.656Z,100451.19
2023-05-02T20:02:11.894Z,100448.53
2023-05-02T20:05:42.065Z,100448.45
2023-05-02T20:09:11.522Z,100449.40
2023-05-02T20:12:24.312Z,100436.73
2023-05-02T20:15:23.413Z,100431.56
2023-05-02T20:18:52.814Z,100417.84
2023-05-02T20:22:23.526Z,100413.67
2023-05-02T20:25:40.328Z,100414.98
2023-05-02T20:29:10.262Z,100410.69
2023-05-02T20:32:10.829Z,100414.41
2023-05-02T20:35:22.122Z,100411.52
2023-05-02T20:38:44.522Z,100410.17
2023-05-02T20:42:13.240Z,100417.40
2023-05-02T20:45:36.985Z,100417.82
2023-05-02T20:48:56.352Z,100407.89
2023-05-02T20:52:25.430Z,100404.79
2023-05-02T20:55:19.390Z,100398.89
2023-05-02T20:57:52.250Z,100392.21
2023-05-02T21:01:22.115Z,100395.14
2023-05-02T21:04:53.246Z,100387.95
2023-05-02T21:08:22.186Z,100392.95
2023-05-02T21:11:37.423Z,100394.13
2023-05-02T21:14:52.255Z,100396.04
2023-05-02T21:17:51.007Z,100395.69
2023-05-02T21:21:20.409Z,100391.45
2023-05-02T21:24:50.016Z,100384.25
2023-05-02T21:28:01.984Z,100391.29
2023-05-02T21:31:31.458Z,100399.92
2023-05-02T21:34:50.827Z,100410.48
2023-05-02T21:37:48.789Z,100406.51
2023-05-02T21:40:29.875Z,100400.88
2023-05-02T21:43:58.842Z,100404.20
2023-05-02T21:47:28.512Z,100409.57
2023-05-02T21:50:58.416Z,100414.43
2023-05-02T21:54:27.854Z,100423.55
2023-05-02T21:57:57.368Z,100420.09
2023-05-02T22:01:27.003Z,100417.66
2023-05-02T22:04:39.651Z,100423.41
2023-05-02T22:08:09.569Z,100429.88
2023-05-02T22:11:25.555Z,100424.39
2023-05-02T22:14:55.521Z,100425.71
2023-05-02T22:18:25.407Z,100423.71
2023-05-02T22:21:55.663Z,100417.70
2023-05-02T22:25:25.289Z,100423.45
2023-05-02T22:28:54.038Z,100423.57
2023-05-02T22:32:23.203Z,100421.62
2023-05-02T22:35:52.657Z,100423.04
2023-05-02T22:39:00.787Z,100427.67
2023-05-02T22:42:30.515Z,100427.09
2023-05-02T22:46:00.893Z,100424.63
2023-05-02T22:49:10.729Z,100422.48
2023-05-02T22:52:40.654Z,100417.19
2023-05-02T22:56:00.233Z,100410.89
2023-05-02T22:59:29.167Z,100414.13
2023-05-02T23:02:58.656Z,100414.77
2023-05-02T23:06:21.184Z,100415.83
2023-05-02T23:09:50.896Z,100409.26
2023-05-02T23:13:20.261Z,100408.38
2023-05-02T23:16:34.807Z,100414.86
2023-05-02T23:20:04.301Z,100412.76
2023-05-02T23:23:33.883Z,100413.33
2023-05-02T23:27:02.948Z,100418.09
2023-05-02T23:30:25.125Z,100426.74
2023-05-02T23:33:54.749Z,100421.38
2023-05-02T23:37:23.865Z,100419.30
2023-05-02T23:40:52.619Z,100417.14
2023-05-02T23:44:14.446Z,100414.14
2023-05-02T23:47:44.080Z,100406.92
2023-05-02T23:51:12.968Z,100398.71
2023-05-02T23:54:42.866Z,100390.67
2023-05-02T23:58:12.637Z,100382.58
